LFPM 030630Z AUTO 32004KT 7000 -RA FEW032 OVC058 05/05 Q0999

Les avions qui composent notre flotte

Avion Robin DR400-100

Avion école

(freins aux palonniers)

F-GGJG
   * tarif promotionnel appliqué pendant la formation des élèves non brevetés